createdAt,value
2019-03-24T00:01:18.232Z,98244.39
2019-03-24T00:03:46.697Z,98246.27
2019-03-24T00:06:15.111Z,98239.00
2019-03-24T00:08:43.557Z,98241.39
2019-03-24T00:11:11.972Z,98240.41
2019-03-24T00:13:40.399Z,98250.37
2019-03-24T00:16:08.813Z,98258.38
2019-03-24T00:18:37.342Z,98195.64
2019-03-24T00:21:05.757Z,98254.94
2019-03-24T00:23:34.193Z,98249.56
2019-03-24T00:26:02.602Z,98238.80
2019-03-24T00:28:31.026Z,98245.23
2019-03-24T00:30:59.457Z,98244.69
2019-03-24T00:33:27.881Z,98236.11
2019-03-24T00:35:56.293Z,98241.02
2019-03-24T00:38:24.710Z,98241.48
2019-03-24T00:40:53.116Z,98238.02
2019-03-24T00:43:21.545Z,98232.34
2019-03-24T00:45:49.982Z,98235.57
2019-03-24T00:48:18.375Z,98232.34
2019-03-24T00:50:46.793Z,98231.59
2019-03-24T00:53:15.201Z,98222.48
2019-03-24T00:55:43.618Z,98218.45
2019-03-24T00:58:12.027Z,98216.05
2019-03-24T01:00:42.191Z,98217.61
2019-03-24T01:03:10.603Z,98216.56
2019-03-24T01:05:39.018Z,98214.41
2019-03-24T01:08:07.414Z,98213.91
2019-03-24T01:10:35.945Z,98211.22
2019-03-24T01:13:04.339Z,98202.67
2019-03-24T01:15:32.759Z,98202.41
2019-03-24T01:18:01.156Z,98189.99
2019-03-24T01:20:29.553Z,98192.45
2019-03-24T01:22:57.975Z,98190.30
2019-03-24T01:25:26.381Z,98188.17
2019-03-24T01:27:54.789Z,98195.64
2019-03-24T01:30:23.192Z,98206.20
2019-03-24T01:32:51.600Z,98196.25
2019-03-24T01:35:20.004Z,98194.16
2019-03-24T01:37:48.483Z,98185.78
2019-03-24T01:40:16.833Z,98184.17
2019-03-24T01:42:45.240Z,98178.80
2019-03-24T01:45:13.668Z,98172.64
2019-03-24T01:47:42.097Z,98176.97
2019-03-24T01:50:10.592Z,98183.94
2019-03-24T01:52:38.990Z,98182.29
2019-03-24T01:55:08.190Z,98180.44
2019-03-24T01:57:36.584Z,98182.66
2019-03-24T02:00:05.599Z,98184.77
2019-03-24T02:02:34.037Z,98182.08
2019-03-24T02:05:02.454Z,98186.69
2019-03-24T02:07:30.861Z,98182.35
2019-03-24T02:09:59.274Z,98172.19
2019-03-24T02:12:27.700Z,98171.33
2019-03-24T02:14:56.105Z,98170.55
2019-03-24T02:17:24.544Z,98167.89
2019-03-24T02:19:52.957Z,98167.36
2019-03-24T02:22:21.364Z,98171.89
2019-03-24T02:24:49.786Z,98163.32
2019-03-24T02:27:18.180Z,98163.08
2019-03-24T02:29:46.618Z,98160.73
2019-03-24T02:32:15.022Z,98162.38
2019-03-24T02:34:43.422Z,98161.33
2019-03-24T02:37:11.821Z,98168.55
2019-03-24T02:39:40.229Z,98161.09
2019-03-24T02:42:08.653Z,98168.02
2019-03-24T02:44:37.156Z,98166.67
2019-03-24T02:47:05.557Z,98165.63
2019-03-24T02:49:33.957Z,98164.83
2019-03-24T02:52:02.466Z,98164.59
2019-03-24T02:54:30.859Z,98173.13
2019-03-24T02:56:59.365Z,98169.97
2019-03-24T02:59:27.799Z,98162.97
2019-03-24T03:01:56.371Z,98166.53
2019-03-24T03:04:24.760Z,98166.83
2019-03-24T03:06:53.166Z,98165.96
2019-03-24T03:09:21.660Z,98163.84
2019-03-24T03:11:50.089Z,98163.27
2019-03-24T03:14:18.516Z,98157.95
2019-03-24T03:16:46.969Z,98155.80
2019-03-24T03:19:15.365Z,98155.27
2019-03-24T03:21:43.770Z,98153.92
2019-03-24T03:24:12.173Z,98152.88
2019-03-24T03:26:40.568Z,98155.80
2019-03-24T03:29:08.968Z,98152.04
2019-03-24T03:31:37.399Z,98149.41
2019-03-24T03:34:05.805Z,98153.15
2019-03-24T03:36:34.206Z,98150.52
2019-03-24T03:39:02.628Z,98156.44
2019-03-24T03:41:31.163Z,98154.86
2019-03-24T03:43:59.578Z,98152.67
2019-03-24T03:46:28.122Z,98155.39
2019-03-24T03:48:56.518Z,98155.66
2019-03-24T03:51:24.912Z,98155.96
2019-03-24T03:53:53.310Z,98161.04
2019-03-24T03:56:21.711Z,98158.66
2019-03-24T03:58:50.113Z,98159.70
2019-03-24T04:01:18.516Z,98150.28
2019-03-24T04:03:46.949Z,98154.11
2019-03-24T04:06:15.417Z,98155.99
2019-03-24T04:08:43.938Z,98155.22
2019-03-24T04:11:12.320Z,98154.11
2019-03-24T04:13:40.733Z,98154.65
2019-03-24T04:16:09.147Z,98149.33
2019-03-24T04:18:37.549Z,98152.83
2019-03-24T04:21:05.978Z,98157.91
2019-03-24T04:23:34.341Z,98153.88
2019-03-24T04:26:02.772Z,98154.92
2019-03-24T04:28:31.169Z,98145.54
2019-03-24T04:30:59.574Z,98149.33
2019-03-24T04:33:28.007Z,98149.63
2019-03-24T04:35:56.444Z,98143.42
2019-03-24T04:38:24.838Z,98143.45
2019-03-24T04:40:53.245Z,98142.91
2019-03-24T04:43:21.710Z,98142.38
2019-03-24T04:45:50.134Z,98143.72
2019-03-24T04:48:18.533Z,98138.58
2019-03-24T04:50:46.946Z,98143.72
2019-03-24T04:53:15.360Z,98144.31
2019-03-24T04:55:43.740Z,98145.09
2019-03-24T04:58:12.189Z,98141.66
2019-03-24T05:00:40.597Z,98140.28
2019-03-24T05:03:09.022Z,98144.05
2019-03-24T05:05:37.605Z,98144.86
2019-03-24T05:08:06.197Z,98150.73
2019-03-24T05:10:34.599Z,98145.96
2019-03-24T05:13:03.032Z,98146.44
2019-03-24T05:15:31.406Z,98151.81
2019-03-24T05:17:59.805Z,98146.73
2019-03-24T05:20:28.227Z,98142.70
2019-03-24T05:22:56.636Z,98140.88
2019-03-24T05:25:25.153Z,98144.34
2019-03-24T05:27:53.592Z,98142.47
2019-03-24T05:30:22.023Z,98145.45
2019-03-24T05:32:50.424Z,98151.94
2019-03-24T05:35:18.897Z,98147.63
2019-03-24T05:37:47.299Z,98143.36
2019-03-24T05:40:15.705Z,98142.26
2019-03-24T05:42:44.133Z,98138.23
2019-03-24T05:45:12.564Z,98140.91
2019-03-24T05:47:40.965Z,98135.84
2019-03-24T05:50:09.402Z,98136.41
2019-03-24T05:52:37.811Z,98142.02
2019-03-24T05:55:06.287Z,98140.44
2019-03-24T05:57:34.704Z,98139.63
2019-03-24T06:00:03.118Z,98138.83
2019-03-24T06:02:31.519Z,98134.49
2019-03-24T06:04:59.903Z,98139.87
2019-03-24T06:07:28.343Z,98134.02
2019-03-24T06:09:56.742Z,98127.30
2019-03-24T06:12:25.148Z,98130.46
2019-03-24T06:14:53.547Z,98127.59
2019-03-24T06:17:21.951Z,98134.25
2019-03-24T06:19:50.347Z,98133.72
2019-03-24T06:22:18.853Z,98134.25
2019-03-24T06:24:47.247Z,98137.48
2019-03-24T06:27:15.649Z,98139.93
2019-03-24T06:29:44.161Z,98137.75
2019-03-24T06:32:12.583Z,98137.98
2019-03-24T06:34:40.990Z,98133.45
2019-03-24T06:37:09.461Z,98130.16
2019-03-24T06:39:37.863Z,98123.70
2019-03-24T06:42:06.265Z,98131.95
2019-03-24T06:44:34.679Z,98129.47
2019-03-24T06:47:03.087Z,98123.28
2019-03-24T06:49:31.496Z,98125.67
2019-03-24T06:51:59.892Z,98124.84
2019-03-24T06:54:28.296Z,98129.67
2019-03-24T06:56:56.692Z,98136.63
2019-03-24T06:59:25.101Z,98126.92
2019-03-24T07:01:53.494Z,98131.02
2019-03-24T07:04:21.897Z,98132.81
2019-03-24T07:06:52.025Z,98132.81
2019-03-24T07:09:20.428Z,98134.39
2019-03-24T07:11:48.858Z,98130.30
2019-03-24T07:14:17.345Z,98134.05
2019-03-24T07:16:45.742Z,98130.53
2019-03-24T07:19:14.137Z,98136.23
2019-03-24T07:21:42.546Z,98139.44
2019-03-24T07:24:10.972Z,98139.94
2019-03-24T07:26:39.451Z,98140.55
2019-03-24T07:29:07.854Z,98142.50
2019-03-24T07:31:36.269Z,98135.45
2019-03-24T07:34:04.672Z,98140.45
2019-03-24T07:36:33.085Z,98134.64
2019-03-24T07:39:01.497Z,98131.88
2019-03-24T07:41:29.930Z,98126.10
2019-03-24T07:43:58.339Z,98127.98
2019-03-24T07:46:26.817Z,98126.91
2019-03-24T07:48:55.225Z,98120.22
2019-03-24T07:51:23.616Z,98122.30
2019-03-24T07:53:52.121Z,98115.04
2019-03-24T07:56:20.533Z,98114.50
2019-03-24T07:58:48.937Z,98113.19
2019-03-24T08:01:17.335Z,98117.97
2019-03-24T08:03:45.808Z,98110.94
2019-03-24T08:06:14.208Z,98110.09
2019-03-24T08:08:44.457Z,98108.08
2019-03-24T08:11:12.694Z,98109.99
2019-03-24T08:13:41.100Z,98111.88
2019-03-24T08:16:09.508Z,98108.88
2019-03-24T08:18:37.920Z,98099.16
2019-03-24T08:21:06.319Z,98098.98
2019-03-24T08:23:34.821Z,98096.77
2019-03-24T08:26:03.227Z,98090.97
2019-03-24T08:28:31.632Z,98093.05
2019-03-24T08:31:00.078Z,98091.16
2019-03-24T08:33:28.484Z,98087.23
2019-03-24T08:35:56.887Z,98084.48
2019-03-24T08:38:25.302Z,98082.22
2019-03-24T08:40:53.719Z,98090.25
2019-03-24T08:43:22.190Z,98083.25
2019-03-24T08:45:50.609Z,98089.07
2019-03-24T08:48:19.016Z,98091.69
2019-03-24T08:50:47.506Z,98083.92
2019-03-24T08:53:15.946Z,98079.70
2019-03-24T08:55:44.365Z,98087.97
2019-03-24T08:58:12.791Z,98085.50
2019-03-24T09:00:41.220Z,98084.31
2019-03-24T09:03:09.616Z,98081.08
2019-03-24T09:05:38.029Z,98080.77
2019-03-24T09:08:06.433Z,98075.80
2019-03-24T09:10:34.836Z,98079.70
2019-03-24T09:13:03.237Z,98078.46
2019-03-24T09:15:31.653Z,98078.11
2019-03-24T09:18:00.060Z,98064.37
2019-03-24T09:20:28.460Z,98068.42
2019-03-24T09:22:56.893Z,98068.11
2019-03-24T09:25:25.415Z,98060.03
2019-03-24T09:27:53.785Z,98053.87
2019-03-24T09:30:29.027Z,98062.67
2019-03-24T09:32:57.448Z,98051.52
2019-03-24T09:35:25.883Z,98054.44
2019-03-24T09:37:54.280Z,98050.17
2019-03-24T09:40:26.832Z,98055.66
2019-03-24T09:42:55.336Z,98049.42
2019-03-24T09:45:23.729Z,98037.22
2019-03-24T09:47:52.167Z,98034.30
2019-03-24T09:50:20.573Z,98030.63
2019-03-24T09:52:48.974Z,98031.03
2019-03-24T09:55:17.376Z,98027.01
2019-03-24T09:57:45.800Z,98026.13
2019-03-24T10:00:14.238Z,98018.52
2019-03-24T10:02:42.709Z,98017.16
2019-03-24T10:05:11.190Z,98010.38
2019-03-24T10:07:39.580Z,98006.80
2019-03-24T10:10:08.058Z,98010.84
2019-03-24T10:12:36.567Z,98005.71
2019-03-24T10:15:05.007Z,97999.62
2019-03-24T10:17:33.412Z,97991.30
2019-03-24T10:20:01.849Z,97997.09
2019-03-24T10:22:30.268Z,97983.67
2019-03-24T10:24:58.681Z,97982.91
2019-03-24T10:27:27.076Z,97976.53
2019-03-24T10:29:55.509Z,97982.69
2019-03-24T10:32:23.916Z,97971.23
2019-03-24T10:34:52.324Z,97972.36
2019-03-24T10:37:20.755Z,97960.63
2019-03-24T10:39:49.174Z,97963.16
2019-03-24T10:42:17.590Z,97960.81
2019-03-24T10:44:46.040Z,97956.05
2019-03-24T10:47:14.451Z,97953.35
2019-03-24T10:49:42.860Z,97951.92
2019-03-24T10:52:11.275Z,97947.16
2019-03-24T10:54:39.680Z,97946.76
2019-03-24T10:57:08.117Z,97944.06
2019-03-24T10:59:36.536Z,97944.32
2019-03-24T11:02:04.948Z,97936.70
2019-03-24T11:04:33.360Z,97939.39
2019-03-24T11:07:01.757Z,97934.34
2019-03-24T11:09:30.170Z,97931.82
2019-03-24T11:11:58.625Z,97932.02
2019-03-24T11:14:27.057Z,97928.73
2019-03-24T11:16:55.456Z,97923.42
2019-03-24T11:19:23.864Z,97926.52
2019-03-24T11:21:52.265Z,97927.29
2019-03-24T11:24:20.668Z,97920.01
2019-03-24T11:26:49.178Z,97915.34
2019-03-24T11:29:17.584Z,97913.90
2019-03-24T11:31:46.015Z,97910.09
2019-03-24T11:34:14.425Z,97910.86
2019-03-24T11:36:42.839Z,97915.97
2019-03-24T11:39:11.309Z,97911.38
2019-03-24T11:41:39.705Z,97907.97
2019-03-24T11:44:08.112Z,97910.32
2019-03-24T11:46:36.517Z,97906.59
2019-03-24T11:49:04.921Z,97898.33
2019-03-24T11:51:33.331Z,97894.69
2019-03-24T11:54:01.857Z,97885.75
2019-03-24T11:56:30.264Z,97888.76
2019-03-24T11:58:58.782Z,97879.46
2019-03-24T12:01:37.794Z,97875.70
2019-03-24T12:03:57.363Z,97873.24
2019-03-24T12:06:25.783Z,97867.33
2019-03-24T12:08:54.185Z,97864.64
2019-03-24T12:11:22.582Z,97859.19
2019-03-24T12:13:51.038Z,97863.29
2019-03-24T12:16:19.434Z,97860.08
2019-03-24T12:18:47.849Z,97855.14
2019-03-24T12:21:16.243Z,97847.12
2019-03-24T12:23:44.665Z,97847.00
2019-03-24T12:26:13.079Z,97833.98
2019-03-24T12:28:41.480Z,97830.34
2019-03-24T12:31:09.912Z,97825.98
2019-03-24T12:33:38.334Z,97825.25
2019-03-24T12:36:06.767Z,97821.53
2019-03-24T12:38:35.159Z,97822.55
2019-03-24T12:41:03.681Z,97822.89
2019-03-24T12:43:32.104Z,97813.52
2019-03-24T12:46:00.512Z,97815.44
2019-03-24T12:48:29.039Z,97806.86
2019-03-24T12:50:57.548Z,97808.70
2019-03-24T12:53:25.947Z,97804.88
2019-03-24T12:55:54.376Z,97804.78
2019-03-24T12:58:22.799Z,97802.57
2019-03-24T13:00:51.213Z,97798.45
2019-03-24T13:03:19.637Z,97790.91
2019-03-24T13:05:48.048Z,97791.88
2019-03-24T13:08:17.142Z,97786.73
2019-03-24T13:10:45.591Z,97785.13
2019-03-24T13:13:13.940Z,97779.27
2019-03-24T13:15:42.348Z,97776.28
2019-03-24T13:18:10.755Z,97772.30
2019-03-24T13:20:39.158Z,97767.94
2019-03-24T13:23:07.659Z,97763.09
2019-03-24T13:25:36.406Z,97765.14
2019-03-24T13:28:04.958Z,97764.12
2019-03-24T13:30:33.357Z,97760.46
2019-03-24T13:33:01.871Z,97758.09
2019-03-24T13:35:30.286Z,97757.92
2019-03-24T13:37:58.733Z,97750.64
2019-03-24T13:40:27.142Z,97748.88
2019-03-24T13:42:55.565Z,97748.61
2019-03-24T13:45:23.968Z,97744.13
2019-03-24T13:47:52.363Z,97739.17
2019-03-24T13:50:30.897Z,97739.05
2019-03-24T13:52:50.846Z,97729.99
2019-03-24T13:55:19.374Z,97734.74
2019-03-24T13:57:47.796Z,97727.42
2019-03-24T14:00:17.125Z,97722.51
2019-03-24T14:02:45.557Z,97717.56
2019-03-24T14:05:13.969Z,97720.52
2019-03-24T14:07:42.374Z,97712.81
2019-03-24T14:10:10.782Z,97710.75
2019-03-24T14:12:39.185Z,97707.42
2019-03-24T14:15:07.825Z,97707.16
2019-03-24T14:17:36.221Z,97710.75
2019-03-24T14:20:05.031Z,97709.58
2019-03-24T14:22:33.440Z,97703.73
2019-03-24T14:25:01.964Z,97696.41
2019-03-24T14:27:30.388Z,97702.38
2019-03-24T14:29:58.799Z,97701.70
2019-03-24T14:32:27.208Z,97698.23
2019-03-24T14:34:55.617Z,97692.97
2019-03-24T14:37:24.024Z,97682.44
2019-03-24T14:39:52.423Z,97687.88
2019-03-24T14:42:20.854Z,97683.84
2019-03-24T14:44:49.270Z,97685.41
2019-03-24T14:47:17.704Z,97682.48
2019-03-24T14:49:46.099Z,97674.62
2019-03-24T14:52:14.565Z,97673.81
2019-03-24T14:54:42.973Z,97673.48
2019-03-24T14:57:11.408Z,97671.27
2019-03-24T14:59:39.816Z,97674.84
2019-03-24T15:02:08.255Z,97673.05
2019-03-24T15:04:36.695Z,97674.14
2019-03-24T15:07:05.166Z,97668.05
2019-03-24T15:09:33.563Z,97670.57
2019-03-24T15:12:01.972Z,97662.58
2019-03-24T15:14:30.404Z,97666.95
2019-03-24T15:16:58.804Z,97670.30
2019-03-24T15:19:27.222Z,97667.07
2019-03-24T15:21:55.624Z,97664.38
2019-03-24T15:24:24.029Z,97669.59
2019-03-24T15:26:52.461Z,97666.67
2019-03-24T15:29:20.879Z,97663.88
2019-03-24T15:31:49.308Z,97660.05
2019-03-24T15:34:17.720Z,97661.41
2019-03-24T15:36:46.145Z,97658.70
2019-03-24T15:39:14.581Z,97665.50
2019-03-24T15:41:42.985Z,97664.16
2019-03-24T15:44:11.425Z,97666.84
2019-03-24T15:46:39.848Z,97668.57
2019-03-24T15:49:08.257Z,97675.42
2019-03-24T15:51:36.656Z,97676.61
2019-03-24T15:54:05.093Z,97681.91
2019-03-24T15:56:33.504Z,97683.58
2019-03-24T15:59:01.941Z,97689.73
2019-03-24T16:01:30.344Z,97686.70
2019-03-24T16:03:58.777Z,97686.48
2019-03-24T16:06:27.190Z,97692.14
2019-03-24T16:08:55.580Z,97691.12
2019-03-24T16:11:23.994Z,97696.29
2019-03-24T16:13:52.397Z,97699.59
2019-03-24T16:16:22.973Z,97697.48
2019-03-24T16:18:51.127Z,97694.64
2019-03-24T16:21:27.295Z,97697.98
2019-03-24T16:23:49.595Z,97696.52
2019-03-24T16:26:18.005Z,97704.98
2019-03-24T16:28:46.407Z,97712.65
2019-03-24T16:31:14.813Z,97712.65
2019-03-24T16:33:43.224Z,97715.16
2019-03-24T16:36:11.629Z,97721.80
2019-03-24T16:38:48.518Z,97716.95
2019-03-24T16:41:10.196Z,97723.81
2019-03-24T16:43:38.599Z,97665.19
2019-03-24T16:46:07.009Z,97721.84
2019-03-24T16:51:04.003Z,97723.60
2019-03-24T16:53:32.435Z,97720.03
2019-03-24T16:56:00.851Z,97723.25
2019-03-24T16:58:29.297Z,97721.97
2019-03-24T17:00:57.692Z,97727.78
2019-03-24T17:03:26.130Z,97725.41
2019-03-24T17:05:54.558Z,97734.42
2019-03-24T17:08:22.965Z,97733.39
2019-03-24T17:10:51.369Z,97742.83
2019-03-24T17:13:19.917Z,97746.88
2019-03-24T17:15:48.337Z,97750.38
2019-03-24T17:18:16.753Z,97749.03
2019-03-24T17:20:45.165Z,97754.75
2019-03-24T17:23:13.568Z,97756.00
2019-03-24T17:25:41.985Z,97767.10
2019-03-24T17:28:10.431Z,97764.34
2019-03-24T17:30:39.001Z,97768.61
2019-03-24T17:33:07.426Z,97770.57
2019-03-24T17:35:35.837Z,97776.06
2019-03-24T17:38:04.267Z,97778.14
2019-03-24T17:40:38.548Z,97780.52
2019-03-24T17:43:02.885Z,97782.58
2019-03-24T17:45:31.288Z,97772.11
2019-03-24T17:47:59.786Z,97784.02
2019-03-24T17:50:28.201Z,97784.66
2019-03-24T17:52:56.641Z,97786.72
2019-03-24T17:55:27.807Z,97793.39
2019-03-24T17:57:55.190Z,97795.05
2019-03-24T18:00:36.707Z,97802.65
2019-03-24T18:03:05.114Z,97804.28
2019-03-24T18:05:33.527Z,97803.99
2019-03-24T18:08:01.945Z,97816.31
2019-03-24T18:10:30.421Z,97814.72
2019-03-24T18:12:58.815Z,97809.72
2019-03-24T18:15:27.232Z,97813.06
2019-03-24T18:17:55.861Z,97811.77
2019-03-24T18:20:30.806Z,97809.56
2019-03-24T18:22:59.235Z,97819.31
2019-03-24T18:25:27.646Z,97828.75
2019-03-24T18:27:56.092Z,97777.45
2019-03-24T18:30:24.512Z,97828.58
2019-03-24T18:32:52.964Z,97835.09
2019-03-24T18:35:21.380Z,97846.68
2019-03-24T18:37:49.825Z,97842.95
2019-03-24T18:40:18.439Z,97848.02
2019-03-24T18:42:46.851Z,97844.05
2019-03-24T18:45:15.293Z,97844.94
2019-03-24T18:47:43.736Z,97849.20
2019-03-24T18:50:12.197Z,97849.59
2019-03-24T18:52:40.618Z,97855.78
2019-03-24T18:55:09.049Z,97857.45
2019-03-24T18:57:37.449Z,97857.19
2019-03-24T19:00:06.177Z,97867.34
2019-03-24T19:02:34.590Z,97867.89
2019-03-24T19:05:03.016Z,97873.61
2019-03-24T19:07:31.429Z,97874.39
2019-03-24T19:09:59.861Z,97869.95
2019-03-24T19:12:28.277Z,97876.05
2019-03-24T19:14:56.713Z,97883.59
2019-03-24T19:17:25.130Z,97880.91
2019-03-24T19:19:53.538Z,97878.21
2019-03-24T19:22:21.967Z,97882.48
2019-03-24T19:24:50.372Z,97886.35
2019-03-24T19:27:18.790Z,97891.52
2019-03-24T19:29:47.205Z,97889.85
2019-03-24T19:32:15.607Z,97890.39
2019-03-24T19:34:44.033Z,97899.28
2019-03-24T19:37:12.518Z,97892.45
2019-03-24T19:39:40.924Z,97900.00
2019-03-24T19:42:09.351Z,97893.49
2019-03-24T19:44:56.593Z,97896.59
2019-03-24T19:47:24.991Z,97896.81
2019-03-24T19:49:53.404Z,97895.16
2019-03-24T19:52:21.881Z,97899.69
2019-03-24T19:54:50.301Z,97902.12
2019-03-24T19:57:18.712Z,97895.70
2019-03-24T19:59:47.157Z,97898.39
2019-03-24T20:02:15.576Z,97889.53
2019-03-24T20:04:44.021Z,97890.88
2019-03-24T20:07:12.445Z,97885.23
2019-03-24T20:09:40.897Z,97893.95
2019-03-24T20:12:09.350Z,97895.78
2019-03-24T20:14:37.797Z,97893.17
2019-03-24T20:17:06.258Z,97889.85
2019-03-24T20:19:34.807Z,97888.24
2019-03-24T20:22:03.341Z,97882.08
2019-03-24T20:24:31.796Z,97887.52
2019-03-24T20:27:00.270Z,97885.14
2019-03-24T20:29:28.684Z,97887.52
2019-03-24T20:31:57.149Z,97888.50
2019-03-24T20:34:25.816Z,97883.66
2019-03-24T20:36:54.285Z,97877.06
2019-03-24T20:42:10.125Z,97885.55
2019-03-24T20:44:38.613Z,97885.23
2019-03-24T20:47:07.115Z,97882.85
2019-03-24T20:49:35.523Z,97878.50
2019-03-24T20:52:03.928Z,97874.77
2019-03-24T20:54:32.356Z,97866.69
2019-03-24T20:57:00.782Z,97864.56
2019-03-24T20:59:29.216Z,97858.70
2019-03-24T21:01:57.622Z,97853.08
2019-03-24T21:04:26.028Z,97845.86
2019-03-24T21:06:54.461Z,97853.70
2019-03-24T21:09:22.873Z,97847.06
2019-03-24T21:11:51.297Z,97838.41
2019-03-24T21:14:19.771Z,97844.28
2019-03-24T21:16:48.238Z,97850.53
2019-03-24T21:19:17.037Z,97851.87
2019-03-24T21:21:45.539Z,97849.04
2019-03-24T21:24:14.021Z,97844.42
2019-03-24T21:26:42.599Z,97839.61
2019-03-24T21:29:11.092Z,97837.23
2019-03-24T21:31:39.566Z,97840.55
2019-03-24T21:36:55.512Z,97838.17
2019-03-24T21:39:24.016Z,97842.22
2019-03-24T21:41:52.499Z,97842.22
2019-03-24T21:44:21.153Z,97843.87
2019-03-24T21:46:49.744Z,97842.84
2019-03-24T21:49:18.218Z,97842.62
2019-03-24T21:51:46.656Z,97843.39
2019-03-24T21:54:15.108Z,97839.20
2019-03-24T21:56:43.571Z,97838.58
2019-03-24T21:59:12.089Z,97838.80
2019-03-24T22:01:40.516Z,97829.92
2019-03-24T22:04:09.039Z,97833.25
2019-03-24T22:06:37.509Z,97831.27
2019-03-24T22:09:07.228Z,97829.77
2019-03-24T22:11:35.683Z,97827.40
2019-03-24T22:14:04.194Z,97826.69
2019-03-24T22:16:32.643Z,97825.02
2019-03-24T22:19:01.085Z,97822.73
2019-03-24T22:21:29.519Z,97824.94
2019-03-24T22:23:57.938Z,97823.98
2019-03-24T22:26:26.404Z,97824.80
2019-03-24T22:28:54.881Z,97825.73
2019-03-24T22:31:23.458Z,97827.31
2019-03-24T22:33:51.939Z,97823.50
2019-03-24T22:36:20.407Z,97820.35
2019-03-24T22:38:48.862Z,97822.41
2019-03-24T22:41:17.382Z,97813.53
2019-03-24T22:43:45.881Z,97815.77
2019-03-24T22:46:14.466Z,97816.62
2019-03-24T22:48:42.980Z,97815.59
2019-03-24T22:51:11.487Z,97820.13
2019-03-24T22:53:40.031Z,97817.25
2019-03-24T22:56:08.640Z,97820.58
2019-03-24T22:58:37.269Z,97817.17
2019-03-24T23:01:05.716Z,97818.43
2019-03-24T23:03:34.180Z,97818.12
2019-03-24T23:06:02.668Z,97805.22
2019-03-24T23:08:31.184Z,97807.59
2019-03-24T23:10:59.655Z,97810.03
2019-03-24T23:13:28.091Z,97802.12
2019-03-24T23:15:56.622Z,97799.43
2019-03-24T23:18:25.009Z,97798.80
2019-03-24T23:20:53.432Z,97796.17
2019-03-24T23:23:21.905Z,97791.36
2019-03-24T23:25:50.426Z,97788.89
2019-03-24T23:28:18.892Z,97786.74
2019-03-24T23:30:47.367Z,97785.02
2019-03-24T23:33:15.919Z,97776.76
2019-03-24T23:35:44.371Z,97778.28
2019-03-24T23:38:12.842Z,97771.87
2019-03-24T23:40:41.447Z,97777.97
2019-03-24T23:43:09.909Z,97772.09
2019-03-24T23:45:40.470Z,97768.59
2019-03-24T23:48:08.940Z,97768.05
2019-03-24T23:50:37.421Z,97767.66
2019-03-24T23:53:05.854Z,97771.61
2019-03-24T23:55:34.393Z,97773.53
2019-03-24T23:58:02.859Z,97774.16
